createdAt,value
2023-05-25T00:00:36.180Z,40.93
2023-05-25T00:03:08.588Z,40.65
2023-05-25T00:05:41.723Z,41.01
2023-05-25T00:08:14.499Z,40.64
2023-05-25T00:10:47.462Z,40.77
2023-05-25T00:13:20.570Z,40.87
2023-05-25T00:15:53.590Z,40.98
2023-05-25T00:18:30.293Z,40.77
2023-05-25T00:21:03.644Z,40.70
2023-05-25T00:23:37.385Z,40.69
2023-05-25T00:26:10.588Z,40.91
2023-05-25T00:28:43.698Z,40.92
2023-05-25T00:31:17.727Z,40.92
2023-05-25T00:33:50.536Z,40.86
2023-05-25T00:36:23.478Z,41.07
2023-05-25T00:38:56.539Z,40.89
2023-05-25T00:41:29.546Z,41.03
2023-05-25T00:44:02.528Z,41.00
2023-05-25T00:46:35.780Z,41.06
2023-05-25T00:49:08.446Z,40.89
2023-05-25T00:51:41.569Z,40.82
2023-05-25T00:54:14.323Z,41.02
2023-05-25T00:56:47.335Z,40.95
2023-05-25T00:59:20.590Z,40.87
2023-05-25T01:01:53.681Z,40.76
2023-05-25T01:04:26.619Z,40.68
2023-05-25T01:06:59.604Z,40.66
2023-05-25T01:09:32.524Z,40.69
2023-05-25T01:12:19.346Z,40.64
2023-05-25T01:14:52.686Z,40.52
2023-05-25T01:17:25.297Z,40.76
2023-05-25T01:20:09.732Z,40.81
2023-05-25T01:22:32.699Z,40.90
2023-05-25T01:25:05.362Z,40.58
2023-05-25T01:27:38.650Z,40.73
2023-05-25T01:30:11.639Z,40.69
2023-05-25T01:32:44.705Z,40.57
2023-05-25T01:35:17.642Z,40.82
2023-05-25T01:37:50.495Z,40.68
2023-05-25T01:40:37.619Z,40.62
2023-05-25T01:43:10.675Z,40.80
2023-05-25T01:45:44.077Z,41.12
2023-05-25T01:48:17.482Z,40.94
2023-05-25T01:50:50.719Z,41.35
2023-05-25T01:53:23.705Z,41.18
2023-05-25T01:55:56.619Z,41.29
2023-05-25T01:58:29.593Z,41.15
2023-05-25T02:01:02.404Z,41.19
2023-05-25T02:03:35.675Z,41.05
2023-05-25T02:06:08.451Z,41.02
2023-05-25T02:08:41.681Z,41.20
2023-05-25T02:11:14.781Z,41.21
2023-05-25T02:13:47.845Z,41.21
2023-05-25T02:16:21.606Z,40.99
2023-05-25T02:18:54.724Z,40.98
2023-05-25T02:21:27.632Z,40.80
2023-05-25T02:24:00.730Z,40.77
2023-05-25T02:26:33.387Z,40.93
2023-05-25T02:29:06.686Z,41.06
2023-05-25T02:31:39.885Z,40.89
2023-05-25T02:34:26.690Z,40.97
2023-05-25T02:36:59.869Z,41.03
2023-05-25T02:39:33.692Z,40.80
2023-05-25T02:42:06.540Z,40.98
2023-05-25T02:44:39.555Z,41.14
2023-05-25T02:47:12.552Z,41.02
2023-05-25T02:49:45.995Z,41.11
2023-05-25T02:52:18.683Z,40.98
2023-05-25T02:54:51.859Z,41.05
2023-05-25T02:57:25.771Z,41.24
2023-05-25T02:59:58.765Z,41.04
2023-05-25T03:02:31.748Z,41.24
2023-05-25T03:05:04.983Z,41.29
2023-05-25T03:07:37.680Z,41.24
2023-05-25T03:10:10.955Z,41.21
2023-05-25T03:12:44.776Z,41.22
2023-05-25T03:15:17.616Z,41.25
2023-05-25T03:17:51.031Z,41.29
2023-05-25T03:20:24.859Z,41.34
2023-05-25T03:22:57.774Z,41.20
2023-05-25T03:25:30.706Z,41.12
2023-05-25T03:28:03.648Z,41.09
2023-05-25T03:30:36.776Z,40.90
2023-05-25T03:33:09.815Z,41.15
2023-05-25T03:35:43.332Z,41.04
2023-05-25T03:38:16.959Z,41.00
2023-05-25T03:40:50.851Z,41.08
2023-05-25T03:43:23.856Z,41.16
2023-05-25T03:45:56.758Z,41.08
2023-05-25T03:48:29.878Z,41.11
2023-05-25T03:51:02.834Z,41.15
2023-05-25T03:53:35.799Z,41.13
2023-05-25T03:56:08.781Z,41.08
2023-05-25T03:58:41.726Z,41.20
2023-05-25T04:01:14.681Z,41.03
2023-05-25T04:03:47.861Z,41.01
2023-05-25T04:06:20.681Z,40.91
2023-05-25T04:08:53.895Z,41.14
2023-05-25T04:11:26.667Z,41.29
2023-05-25T04:13:59.664Z,41.20
2023-05-25T04:16:32.806Z,41.26
2023-05-25T04:19:05.536Z,41.18
2023-05-25T04:21:38.541Z,41.18
2023-05-25T04:24:12.058Z,40.71
2023-05-25T04:26:45.841Z,40.58
2023-05-25T04:29:18.716Z,40.60
2023-05-25T04:31:51.775Z,40.67
2023-05-25T04:34:24.724Z,40.55
2023-05-25T04:36:57.777Z,40.44
2023-05-25T04:39:30.757Z,40.59
2023-05-25T04:42:03.666Z,40.54
2023-05-25T04:44:50.712Z,40.53
2023-05-25T04:47:23.744Z,40.60
2023-05-25T04:49:56.767Z,40.55
2023-05-25T04:52:29.722Z,40.47
2023-05-25T04:55:02.679Z,40.59
2023-05-25T04:57:35.585Z,40.63
2023-05-25T05:00:09.010Z,40.65
2023-05-25T05:02:41.871Z,40.63
2023-05-25T05:05:14.791Z,40.76
2023-05-25T05:07:47.721Z,40.84
2023-05-25T05:10:20.890Z,40.74
2023-05-25T05:12:53.746Z,40.92
2023-05-25T05:15:27.132Z,40.84
2023-05-25T05:18:00.756Z,40.85
2023-05-25T05:20:33.832Z,41.01
2023-05-25T05:23:06.774Z,41.10
2023-05-25T05:25:39.804Z,40.96
2023-05-25T05:28:13.066Z,40.81
2023-05-25T05:30:46.030Z,40.75
2023-05-25T05:33:19.177Z,40.75
2023-05-25T05:35:53.165Z,40.75
2023-05-25T05:38:27.099Z,40.75
2023-05-25T05:40:59.671Z,40.77
2023-05-25T05:43:33.050Z,40.77
2023-05-25T05:46:06.047Z,40.76
2023-05-25T05:48:38.941Z,40.77
2023-05-25T05:51:12.068Z,40.79
2023-05-25T05:53:44.705Z,40.79
2023-05-25T05:56:17.759Z,40.80
2023-05-25T05:58:51.188Z,40.81
2023-05-25T06:01:24.822Z,40.80
2023-05-25T06:03:59.797Z,40.82
2023-05-25T06:06:33.052Z,40.82
2023-05-25T06:09:06.032Z,40.81
2023-05-25T06:11:38.668Z,40.83
2023-05-25T06:14:11.952Z,40.83
2023-05-25T06:16:44.796Z,40.85
2023-05-25T06:19:18.080Z,40.79
2023-05-25T06:21:51.049Z,40.82
2023-05-25T06:24:24.111Z,40.84
2023-05-25T06:26:56.833Z,40.86
2023-05-25T06:29:29.885Z,40.87
2023-05-25T06:32:03.108Z,40.87
2023-05-25T06:34:38.182Z,40.87
2023-05-25T06:37:10.103Z,40.88
2023-05-25T06:39:43.191Z,40.87
2023-05-25T06:42:15.958Z,40.87
2023-05-25T06:44:48.728Z,40.86
2023-05-25T06:47:22.028Z,40.79
2023-05-25T06:49:55.334Z,40.81
2023-05-25T06:52:29.056Z,40.77
2023-05-25T06:55:02.172Z,40.72
2023-05-25T06:57:34.842Z,40.69
2023-05-25T07:00:08.042Z,40.64
2023-05-25T07:02:40.772Z,40.65
2023-05-25T07:05:14.140Z,40.67
2023-05-25T07:07:47.068Z,40.65
2023-05-25T07:10:20.144Z,40.68
2023-05-25T07:12:53.161Z,40.66
2023-05-25T07:15:26.124Z,40.67
2023-05-25T07:17:59.526Z,40.67
2023-05-25T07:20:33.071Z,40.59
2023-05-25T07:23:06.131Z,40.64
2023-05-25T07:25:39.292Z,40.59
2023-05-25T07:28:13.235Z,40.62
2023-05-25T07:30:46.074Z,40.64
2023-05-25T07:33:18.901Z,40.62
2023-05-25T07:35:52.088Z,40.62
2023-05-25T07:38:24.952Z,40.57
2023-05-25T07:40:57.853Z,40.62
2023-05-25T07:43:31.154Z,40.52
2023-05-25T07:46:04.320Z,40.55
2023-05-25T07:48:38.165Z,40.61
2023-05-25T07:51:11.345Z,40.56
2023-05-25T07:53:45.112Z,40.62
2023-05-25T07:56:18.276Z,40.62
2023-05-25T07:58:50.839Z,40.58
2023-05-25T08:01:26.798Z,40.61
2023-05-25T08:03:57.360Z,40.63
2023-05-25T08:06:29.986Z,40.67
2023-05-25T08:09:03.266Z,40.66
2023-05-25T08:11:36.218Z,40.66
2023-05-25T08:14:09.403Z,40.55
2023-05-25T08:16:43.282Z,40.67
2023-05-25T08:19:16.012Z,40.58
2023-05-25T08:21:49.186Z,40.62
2023-05-25T08:24:21.899Z,40.68
2023-05-25T08:26:55.319Z,40.71
2023-05-25T08:29:28.362Z,40.72
2023-05-25T08:32:02.267Z,40.73
2023-05-25T08:34:35.379Z,40.80
2023-05-25T08:37:09.251Z,40.84
2023-05-25T08:39:42.256Z,40.77
2023-05-25T08:42:15.401Z,40.81
2023-05-25T08:44:47.920Z,40.82
2023-05-25T08:47:21.023Z,40.83
2023-05-25T08:49:54.000Z,40.83
2023-05-25T08:52:27.096Z,40.83
2023-05-25T08:55:00.024Z,40.86
2023-05-25T08:57:33.065Z,40.85
2023-05-25T09:00:06.255Z,40.88
2023-05-25T09:02:39.280Z,40.90
2023-05-25T09:05:12.291Z,40.91
2023-05-25T09:07:45.149Z,40.90
2023-05-25T09:10:18.456Z,40.91
2023-05-25T09:12:51.576Z,40.92
2023-05-25T09:15:24.124Z,40.93
2023-05-25T09:17:57.081Z,40.93
2023-05-25T09:20:30.526Z,40.97
2023-05-25T09:23:04.146Z,40.93
2023-05-25T09:25:37.232Z,40.97
2023-05-25T09:28:24.837Z,40.98
2023-05-25T09:30:43.547Z,40.99
2023-05-25T09:33:16.389Z,40.98
2023-05-25T09:35:49.039Z,40.99
2023-05-25T09:38:22.773Z,41.01
2023-05-25T09:40:54.991Z,41.01
2023-05-25T09:43:40.573Z,41.03
2023-05-25T09:46:02.440Z,41.06
2023-05-25T09:48:35.157Z,41.03
2023-05-25T09:51:08.165Z,41.04
2023-05-25T09:53:41.316Z,41.06
2023-05-25T09:56:14.517Z,41.06
2023-05-25T09:58:48.213Z,41.06
2023-05-25T10:01:21.400Z,41.07
2023-05-25T10:04:03.609Z,41.08
2023-05-25T10:06:27.389Z,41.10
2023-05-25T10:09:00.557Z,41.12
2023-05-25T10:11:34.194Z,41.11
2023-05-25T10:14:07.403Z,41.10
2023-05-25T10:16:40.551Z,41.15
2023-05-25T10:19:14.398Z,41.16
2023-05-25T10:21:47.504Z,41.14
2023-05-25T10:24:21.175Z,41.14
2023-05-25T10:26:54.354Z,41.14
2023-05-25T10:29:27.455Z,41.16
2023-05-25T10:32:00.444Z,41.15
2023-05-25T10:34:33.496Z,41.14
2023-05-25T10:37:06.086Z,41.16
2023-05-25T10:39:39.473Z,41.17
2023-05-25T10:42:12.425Z,41.19
2023-05-25T10:44:45.445Z,41.20
2023-05-25T10:47:18.504Z,41.20
2023-05-25T10:49:51.075Z,41.23
2023-05-25T10:52:24.176Z,41.23
2023-05-25T10:54:57.389Z,41.24
2023-05-25T10:57:30.453Z,41.26
2023-05-25T11:00:03.419Z,41.25
2023-05-25T11:02:36.350Z,41.29
2023-05-25T11:05:09.217Z,41.26
2023-05-25T11:07:42.438Z,41.28
2023-05-25T11:10:15.488Z,41.29
2023-05-25T11:12:48.587Z,41.30
2023-05-25T11:15:22.547Z,41.34
2023-05-25T11:17:55.427Z,41.34
2023-05-25T11:20:28.460Z,41.33
2023-05-25T11:23:01.313Z,41.33
2023-05-25T11:25:37.726Z,41.36
2023-05-25T11:28:11.521Z,41.36
2023-05-25T11:30:44.564Z,41.34
2023-05-25T11:33:17.478Z,41.35
2023-05-25T11:35:50.298Z,41.34
2023-05-25T11:38:23.488Z,41.35
2023-05-25T11:40:56.445Z,41.38
2023-05-25T11:43:29.242Z,41.37
2023-05-25T11:46:02.229Z,41.36
2023-05-25T11:48:35.457Z,41.38
2023-05-25T11:51:08.472Z,41.39
2023-05-25T11:53:41.647Z,41.38
2023-05-25T11:56:23.900Z,41.38
2023-05-25T11:58:48.287Z,41.40
2023-05-25T12:01:21.349Z,41.38
2023-05-25T12:03:54.692Z,41.40
2023-05-25T12:06:27.379Z,41.41
2023-05-25T12:09:00.202Z,41.41
2023-05-25T12:11:33.340Z,41.40
2023-05-25T12:14:06.394Z,41.39
2023-05-25T12:16:39.556Z,41.40
2023-05-25T12:19:12.360Z,41.40
2023-05-25T12:21:45.425Z,41.40
2023-05-25T12:24:18.341Z,41.40
2023-05-25T12:26:51.367Z,41.42
2023-05-25T12:29:24.359Z,41.42
2023-05-25T12:31:57.268Z,41.41
2023-05-25T12:34:30.382Z,41.40
2023-05-25T12:37:03.487Z,41.41
2023-05-25T12:39:36.411Z,41.41
2023-05-25T12:42:09.444Z,41.41
2023-05-25T12:44:42.369Z,41.40
2023-05-25T12:47:15.639Z,41.38
2023-05-25T12:49:48.623Z,41.40
2023-05-25T12:52:21.683Z,41.40
2023-05-25T12:54:54.425Z,41.40
2023-05-25T12:57:27.380Z,41.38
2023-05-25T13:00:00.285Z,41.37
2023-05-25T13:02:33.607Z,41.38
2023-05-25T13:05:06.365Z,41.37
2023-05-25T13:07:39.445Z,41.39
2023-05-25T13:10:12.514Z,41.36
2023-05-25T13:12:45.436Z,41.38
2023-05-25T13:15:18.532Z,41.41
2023-05-25T13:17:51.561Z,41.40
2023-05-25T13:20:24.493Z,41.37
2023-05-25T13:22:57.854Z,41.39
2023-05-25T13:25:31.742Z,41.39
2023-05-25T13:28:04.327Z,41.36
2023-05-25T13:30:37.620Z,41.38
2023-05-25T13:33:10.588Z,41.35
2023-05-25T13:35:43.395Z,41.36
2023-05-25T13:38:17.483Z,41.38
2023-05-25T13:40:49.492Z,41.36
2023-05-25T13:43:22.839Z,41.33
2023-05-25T13:45:56.726Z,41.34
2023-05-25T13:48:29.559Z,41.34
2023-05-25T13:51:02.615Z,41.33
2023-05-25T13:53:35.535Z,41.31
2023-05-25T13:56:08.616Z,41.29
2023-05-25T13:58:41.564Z,41.27
2023-05-25T14:01:14.533Z,41.27
2023-05-25T14:03:47.882Z,41.27
2023-05-25T14:06:20.532Z,41.23
2023-05-25T14:08:53.499Z,41.19
2023-05-25T14:11:28.428Z,41.20
2023-05-25T14:13:59.564Z,41.16
2023-05-25T14:16:32.559Z,41.14
2023-05-25T14:19:05.450Z,41.14
2023-05-25T14:21:38.572Z,41.12
2023-05-25T14:24:11.558Z,41.13
2023-05-25T14:26:44.716Z,41.09
2023-05-25T14:29:17.564Z,41.07
2023-05-25T14:31:50.645Z,41.07
2023-05-25T14:34:23.441Z,41.05
2023-05-25T14:36:56.845Z,41.04
2023-05-25T14:39:29.579Z,41.02
2023-05-25T14:42:02.473Z,40.96
2023-05-25T14:44:35.618Z,40.93
2023-05-25T14:47:08.584Z,40.93
2023-05-25T14:49:41.566Z,40.91
2023-05-25T14:52:14.461Z,40.90
2023-05-25T14:54:47.452Z,40.86
2023-05-25T14:57:20.609Z,40.88
2023-05-25T14:59:53.822Z,40.79
2023-05-25T15:02:26.916Z,40.80
2023-05-25T15:04:59.566Z,40.78
2023-05-25T15:07:32.592Z,40.76
2023-05-25T15:10:05.475Z,40.75
2023-05-25T15:12:38.599Z,40.73
2023-05-25T15:15:11.721Z,40.70
2023-05-25T15:17:44.625Z,40.74
2023-05-25T15:20:17.797Z,40.68
2023-05-25T15:22:50.809Z,40.65
2023-05-25T15:25:34.963Z,40.64
2023-05-25T15:27:56.588Z,40.60
2023-05-25T15:30:29.717Z,40.90
2023-05-25T15:33:02.539Z,40.92
2023-05-25T15:35:35.657Z,40.93
2023-05-25T15:38:08.515Z,40.94
2023-05-25T15:40:41.852Z,40.90
2023-05-25T15:43:14.711Z,40.88
2023-05-25T15:46:01.605Z,40.84
2023-05-25T15:48:34.665Z,40.66
2023-05-25T15:51:07.609Z,40.56
2023-05-25T15:53:40.694Z,40.50
2023-05-25T15:56:13.628Z,40.47
2023-05-25T15:58:46.912Z,40.52
2023-05-25T16:01:19.783Z,40.59
2023-05-25T16:03:52.736Z,40.60
2023-05-25T16:06:25.776Z,40.60
2023-05-25T16:08:58.860Z,40.65
2023-05-25T16:11:31.922Z,40.87
2023-05-25T16:14:04.619Z,40.73
2023-05-25T16:16:38.073Z,40.70
2023-05-25T16:19:13.888Z,40.70
2023-05-25T16:21:44.786Z,40.72
2023-05-25T16:24:17.932Z,40.74
2023-05-25T16:26:50.771Z,40.75
2023-05-25T16:29:23.654Z,40.78
2023-05-25T16:31:56.768Z,40.78
2023-05-25T16:34:29.875Z,40.76
2023-05-25T16:37:02.761Z,40.81
2023-05-25T16:39:35.747Z,40.80
2023-05-25T16:42:08.604Z,40.81
2023-05-25T16:44:41.826Z,40.79
2023-05-25T16:47:14.596Z,40.80
2023-05-25T16:49:47.705Z,40.82
2023-05-25T16:52:20.829Z,40.80
2023-05-25T16:54:53.721Z,40.90
2023-05-25T16:57:26.717Z,40.93
2023-05-25T17:00:00.001Z,41.00
2023-05-25T17:02:33.187Z,41.02
2023-05-25T17:05:06.831Z,41.07
2023-05-25T17:07:43.823Z,41.13
2023-05-25T17:10:16.782Z,41.17
2023-05-25T17:12:49.663Z,41.24
2023-05-25T17:15:22.750Z,41.30
2023-05-25T17:17:55.832Z,41.35
2023-05-25T17:20:28.899Z,41.35
2023-05-25T17:23:01.828Z,41.39
2023-05-25T17:25:34.976Z,41.41
2023-05-25T17:28:07.665Z,41.42
2023-05-25T17:30:40.944Z,41.43
2023-05-25T17:33:14.994Z,41.45
2023-05-25T17:35:47.950Z,41.47
2023-05-25T17:38:20.743Z,41.47
2023-05-25T17:40:53.863Z,41.50
2023-05-25T17:43:26.769Z,41.49
2023-05-25T17:46:05.679Z,41.52
2023-05-25T17:48:38.990Z,41.54
2023-05-25T17:51:11.710Z,41.55
2023-05-25T17:53:44.828Z,41.57
2023-05-25T17:56:17.716Z,41.59
2023-05-25T17:58:53.614Z,41.59
2023-05-25T18:01:26.965Z,41.62
2023-05-25T18:03:59.952Z,41.65
2023-05-25T18:06:32.699Z,41.65
2023-05-25T18:09:05.843Z,41.69
2023-05-25T18:11:39.106Z,41.70
2023-05-25T18:14:11.737Z,41.75
2023-05-25T18:16:47.819Z,41.76
2023-05-25T18:19:20.894Z,41.78
2023-05-25T18:21:54.045Z,41.80
2023-05-25T18:24:27.082Z,41.82
2023-05-25T18:26:59.965Z,41.83
2023-05-25T18:29:32.841Z,41.85
2023-05-25T18:32:05.892Z,41.85
2023-05-25T18:34:38.841Z,41.83
2023-05-25T18:37:11.759Z,41.85
2023-05-25T18:39:45.001Z,41.87
2023-05-25T18:42:18.014Z,41.87
2023-05-25T18:44:50.892Z,41.87
2023-05-25T18:47:23.880Z,41.87
2023-05-25T18:49:57.964Z,41.90
2023-05-25T18:52:33.113Z,41.92
2023-05-25T18:55:06.200Z,41.92
2023-05-25T18:57:39.065Z,41.93
2023-05-25T19:00:11.990Z,41.83
2023-05-25T19:02:45.203Z,41.80
2023-05-25T19:05:17.806Z,41.78
2023-05-25T19:07:59.026Z,41.71
2023-05-25T19:10:24.346Z,41.68
2023-05-25T19:12:58.087Z,41.63
2023-05-25T19:15:31.190Z,41.61
2023-05-25T19:18:04.211Z,41.52
2023-05-25T19:20:37.309Z,41.50
2023-05-25T19:23:10.103Z,41.49
2023-05-25T19:25:43.358Z,41.44
2023-05-25T19:28:16.080Z,41.39
2023-05-25T19:30:48.927Z,41.34
2023-05-25T19:33:21.851Z,41.32
2023-05-25T19:35:55.187Z,41.26
2023-05-25T19:38:34.146Z,41.26
2023-05-25T19:41:02.367Z,41.21
2023-05-25T19:43:36.071Z,41.24
2023-05-25T19:46:08.893Z,41.21
2023-05-25T19:48:41.939Z,41.26
2023-05-25T19:51:14.968Z,41.20
2023-05-25T19:53:47.983Z,41.24
2023-05-25T19:56:21.247Z,41.16
2023-05-25T19:58:54.380Z,41.04
2023-05-25T20:01:28.063Z,41.13
2023-05-25T20:04:00.886Z,41.15
2023-05-25T20:06:33.911Z,41.17
2023-05-25T20:09:06.883Z,41.19
2023-05-25T20:11:39.919Z,41.22
2023-05-25T20:14:12.928Z,41.23
2023-05-25T20:16:46.014Z,41.25
2023-05-25T20:19:18.888Z,41.28
2023-05-25T20:21:51.948Z,41.31
2023-05-25T20:24:24.964Z,41.33
2023-05-25T20:26:58.142Z,41.40
2023-05-25T20:29:32.009Z,41.48
2023-05-25T20:32:04.984Z,41.54
2023-05-25T20:34:42.049Z,41.59
2023-05-25T20:37:15.254Z,41.65
2023-05-25T20:39:48.254Z,41.70
2023-05-25T20:42:21.035Z,41.70
2023-05-25T20:44:54.100Z,41.68
2023-05-25T20:47:26.996Z,41.65
2023-05-25T20:50:00.194Z,41.75
2023-05-25T20:52:33.036Z,41.74
2023-05-25T20:55:05.984Z,41.75
2023-05-25T20:57:39.087Z,41.73
2023-05-25T21:00:12.137Z,41.73
2023-05-25T21:02:45.055Z,41.70
2023-05-25T21:05:18.254Z,41.72
2023-05-25T21:07:51.091Z,41.67
2023-05-25T21:10:23.987Z,41.69
2023-05-25T21:12:57.149Z,41.38
2023-05-25T21:15:29.996Z,41.31
2023-05-25T21:18:03.152Z,41.39
2023-05-25T21:20:36.368Z,41.53
2023-05-25T21:23:09.338Z,41.36
2023-05-25T21:25:42.432Z,41.47
2023-05-25T21:28:15.374Z,41.50
2023-05-25T21:30:48.330Z,41.51
2023-05-25T21:33:21.271Z,41.52
2023-05-25T21:35:54.487Z,41.50
2023-05-25T21:38:28.325Z,41.39
2023-05-25T21:41:15.363Z,41.52
2023-05-25T21:43:48.502Z,41.55
2023-05-25T21:46:22.304Z,41.40
2023-05-25T21:48:55.288Z,41.53
2023-05-25T21:51:30.379Z,41.47
2023-05-25T21:54:03.415Z,41.45
2023-05-25T21:56:36.595Z,41.39
2023-05-25T21:59:10.368Z,41.49
2023-05-25T22:01:43.412Z,41.45
2023-05-25T22:04:16.359Z,41.64
2023-05-25T22:06:49.448Z,41.77
2023-05-25T22:09:22.332Z,41.62
2023-05-25T22:11:55.474Z,41.53
2023-05-25T22:14:28.366Z,41.47
2023-05-25T22:17:01.525Z,41.39
2023-05-25T22:19:34.431Z,41.57
2023-05-25T22:22:07.340Z,41.89
2023-05-25T22:24:40.397Z,41.80
2023-05-25T22:27:13.354Z,41.65
2023-05-25T22:29:46.596Z,41.76
2023-05-25T22:32:20.517Z,41.87
2023-05-25T22:34:54.432Z,41.63
2023-05-25T22:37:27.372Z,41.57
2023-05-25T22:40:00.469Z,41.76
2023-05-25T22:42:33.389Z,41.64
2023-05-25T22:45:12.452Z,41.54
2023-05-25T22:47:45.446Z,41.50
2023-05-25T22:50:18.409Z,41.51
2023-05-25T22:52:51.441Z,41.70
2023-05-25T22:55:24.386Z,41.49
2023-05-25T22:57:57.520Z,41.42
2023-05-25T23:00:30.360Z,41.50
2023-05-25T23:03:04.648Z,41.56
2023-05-25T23:05:36.264Z,41.65
2023-05-25T23:08:09.140Z,41.60
2023-05-25T23:10:42.598Z,41.57
2023-05-25T23:13:16.488Z,41.55
2023-05-25T23:15:49.310Z,41.56
2023-05-25T23:18:22.445Z,41.89
2023-05-25T23:20:55.478Z,41.49
2023-05-25T23:23:28.452Z,41.72
2023-05-25T23:26:01.304Z,41.61
2023-05-25T23:28:34.532Z,41.68
2023-05-25T23:31:07.699Z,41.35
2023-05-25T23:33:40.503Z,41.46
2023-05-25T23:36:13.479Z,41.44
2023-05-25T23:38:46.559Z,41.50
2023-05-25T23:41:19.510Z,41.50
2023-05-25T23:43:52.658Z,41.38
2023-05-25T23:46:26.588Z,41.36
2023-05-25T23:49:00.576Z,41.54
2023-05-25T23:51:33.622Z,41.46
2023-05-25T23:54:06.571Z,41.45
2023-05-25T23:56:39.488Z,41.55
2023-05-25T23:59:12.527Z,41.45
